Time;durP1;ratioP1;P1;durP2;ratioP2;P2;SDS_P1;SDS_P2;PMS_P1;PMS_P2;Temp;Humidity;BMP_temperature;BMP_pressure;BME280_temperature;BME280_humidity;BME280_pressure;Samples;Min_cycle;Max_cycle;Signal;HPM_P1;HPM_P2
2021/04/09 02:46:51;;;;;;;4.32;2.22;;;5.20;55.40;;;;;;5253978;23;93697;-85
2021/04/09 02:49:48;;;;;;;2.67;1.60;;;5.20;59.90;;;;;;4849714;29;93097;-86
2021/04/09 02:52:21;;;;;;;4.57;2.20;;;5.10;62.30;;;;;;4842688;29;92019;-85
2021/04/09 02:54:52;;;;;;;2.38;2.10;;;4.90;67.30;;;;;;4853520;29;92080;-85
2021/04/09 02:57:21;;;;;;;4.43;2.17;;;4.70;71.50;;;;;;4851365;29;92367;-86
2021/04/09 02:59:49;;;;;;;3.65;2.58;;;4.60;76.50;;;;;;4853479;29;92480;-85
2021/04/09 03:02:15;;;;;;;5.38;2.50;;;4.50;79.80;;;;;;4853863;29;91250;-86
2021/04/09 03:04:41;;;;;;;4.18;2.33;;;4.30;83.10;;;;;;4845274;29;92247;-86
2021/04/09 03:07:10;;;;;;;3.90;2.50;;;4.20;90.40;;;;;;4832081;29;92249;-85
2021/04/09 03:09:37;;;;;;;4.88;2.47;;;4.00;92.90;;;;;;4850168;29;92972;-86
2021/04/09 03:12:17;;;;;;;3.45;2.35;;;3.90;94.10;;;;;;4850384;29;91930;-85
2021/04/09 03:14:44;;;;;;;4.35;2.30;;;3.80;96.40;;;;;;4852785;29;92009;-85
2021/04/09 03:17:23;;;;;;;4.15;2.15;;;3.70;95.50;;;;;;4861631;29;92194;-85
2021/04/09 03:19:51;;;;;;;3.65;2.45;;;3.60;96.00;;;;;;4855684;29;94067;-85
2021/04/09 03:22:17;;;;;;;3.78;2.08;;;3.50;96.50;;;;;;4860323;29;92035;-85
2021/04/09 03:24:43;;;;;;;2.75;2.42;;;3.50;96.10;;;;;;4858700;29;91261;-88
2021/04/09 03:27:09;;;;;;;4.65;2.40;;;3.50;96.00;;;;;;4865308;29;92326;-88
2021/04/09 03:29:35;;;;;;;2.63;2.10;;;3.40;96.10;;;;;;4855904;29;92157;-88
2021/04/09 03:32:02;;;;;;;5.53;2.10;;;3.30;98.10;;;;;;4848928;29;91967;-87
2021/04/09 03:34:28;;;;;;;4.55;2.25;;;3.20;97.40;;;;;;4848244;29;93376;-85
2021/04/09 03:36:53;;;;;;;4.57;2.55;;;3.10;98.40;;;;;;4866314;29;94535;-86
2021/04/09 03:39:19;;;;;;;3.80;2.33;;;3.00;98.30;;;;;;4858787;29;92258;-87
2021/04/09 03:41:45;;;;;;;3.42;2.45;;;2.90;99.20;;;;;;4842523;29;92292;-88
2021/04/09 03:44:10;;;;;;;3.05;2.20;;;2.90;99.10;;;;;;4846786;29;91550;-88
2021/04/09 03:46:36;;;;;;;2.92;2.40;;;2.80;99.90;;;;;;4858829;29;93725;-88
2021/04/09 03:49:02;;;;;;;5.55;2.60;;;2.70;99.90;;;;;;4866372;29;92089;-90
2021/04/09 03:51:30;;;;;;;5.63;2.55;;;2.60;99.90;;;;;;4866234;29;91209;-89
2021/04/09 03:53:56;;;;;;;7.30;3.13;;;;;;;;;;4854740;29;92352;-87
2021/04/09 03:56:22;;;;;;;3.75;2.42;;;2.50;99.90;;;;;;4848813;29;95122;-89
2021/04/09 03:58:48;;;;;;;2.50;2.25;;;2.40;99.90;;;;;;4854827;29;93669;-89
2021/04/09 04:01:14;;;;;;;5.22;2.00;;;;;;;;;;4866518;29;91977;-89
2021/04/09 04:03:42;;;;;;;5.05;2.40;;;2.40;99.90;;;;;;4839345;29;92359;-89
2021/04/09 04:06:08;;;;;;;4.35;2.92;;;;;;;;;;4829783;29;96212;-90
2021/04/09 04:08:34;;;;;;;5.47;3.17;;;;;;;;;;4843233;29;92413;-90
2021/04/09 04:11:00;;;;;;;5.68;2.80;;;;;;;;;;4850160;29;91932;-89
2021/04/09 04:13:26;;;;;;;3.45;2.80;;;;;;;;;;4868009;29;92093;-90
2021/04/09 04:15:53;;;;;;;3.80;2.72;;;2.20;99.90;;;;;;4849995;29;92332;-89
2021/04/09 04:18:20;;;;;;;3.85;2.80;;;;;;;;;;4846845;29;93119;-92
2021/04/09 04:20:46;;;;;;;3.67;2.50;;;;;;;;;;4836360;29;91947;-89
2021/04/09 04:23:14;;;;;;;4.63;2.72;;;2.10;99.90;;;;;;4860097;29;93027;-91
2021/04/09 04:25:40;;;;;;;3.45;2.40;;;;;;;;;;4848327;29;95313;-89
2021/04/09 04:28:06;;;;;;;3.22;2.50;;;;;;;;;;4865719;29;92484;-91
2021/04/09 04:30:32;;;;;;;3.97;2.70;;;;;;;;;;4844115;29;92102;-89
2021/04/09 04:32:59;;;;;;;3.42;2.50;;;2.00;99.90;;;;;;4835798;29;91963;-89
2021/04/09 04:35:25;;;;;;;3.53;2.35;;;;;;;;;;4866192;29;92108;-87
2021/04/09 04:37:51;;;;;;;4.20;2.80;;;;;;;;;;4866743;29;92492;-89
2021/04/09 04:40:17;;;;;;;3.20;2.47;;;;;;;;;;4850441;29;91150;-91
2021/04/09 04:42:43;;;;;;;3.40;2.60;;;;;;;;;;4853373;29;91967;-90
2021/04/09 04:45:10;;;;;;;4.75;2.60;;;;;;;;;;4866337;28;93260;-90
2021/04/09 04:47:36;;;;;;;3.92;2.90;;;;;;;;;;4863537;29;94425;-90
2021/04/09 04:50:03;;;;;;;4.18;2.67;;;1.90;99.90;;;;;;4847676;29;91988;-89
2021/04/09 04:52:29;;;;;;;5.28;3.33;;;;;;;;;;4836656;29;91542;-90
2021/04/09 04:54:55;;;;;;;4.78;2.90;;;;;;;;;;4850488;29;95897;-88
2021/04/09 04:57:22;;;;;;;5.40;3.38;;;1.80;99.90;;;;;;4849763;29;93715;-90
2021/04/09 04:59:49;;;;;;;5.25;3.30;;;;;;;;;;4850831;29;93857;-89
2021/04/09 05:02:16;;;;;;;4.63;2.90;;;1.80;99.90;;;;;;4850117;29;91725;-91
2021/04/09 05:04:42;;;;;;;3.90;2.88;;;;;;;;;;4867971;29;93093;-90
2021/04/09 05:07:08;;;;;;;5.43;3.03;;;;;;;;;;4867197;29;91702;-87
2021/04/09 05:09:34;;;;;;;4.70;3.28;;;;;;;;;;4849998;29;91967;-90
2021/04/09 05:12:00;;;;;;;4.43;2.92;;;;;;;;;;4849710;29;93083;-89
2021/04/09 05:14:27;;;;;;;5.93;3.58;;;1.80;99.90;;;;;;4850509;29;94751;-88
2021/04/09 05:16:52;;;;;;;4.80;2.80;;;1.80;99.90;;;;;;4852166;29;92976;-88
2021/04/09 05:19:18;;;;;;;4.53;3.20;;;1.80;99.90;;;;;;4869837;29;92095;-89
2021/04/09 05:21:44;;;;;;;7.22;2.92;;;;;;;;;;4847525;29;91998;-92
2021/04/09 05:24:10;;;;;;;5.57;2.92;;;2.10;99.90;;;;;;4838479;29;94339;-87
2021/04/09 05:26:36;;;;;;;5.93;3.30;;;2.10;99.90;;;;;;4855218;29;95273;-88
2021/04/09 05:29:01;;;;;;;4.57;3.13;;;2.20;99.90;;;;;;4835942;29;91682;-89
2021/04/09 05:31:27;;;;;;;5.65;3.28;;;2.20;99.90;;;;;;4855297;29;92275;-90
2021/04/09 05:33:53;;;;;;;6.88;3.83;;;2.40;99.90;;;;;;4837827;29;92188;-89
2021/04/09 05:36:20;;;;;;;7.90;3.67;;;2.40;99.90;;;;;;4858145;29;93235;-91
2021/04/09 05:38:46;;;;;;;7.63;3.60;;;;;;;;;;4839148;29;92343;-89
2021/04/09 05:41:11;;;;;;;5.20;3.75;;;2.70;99.90;;;;;;4836847;29;92689;-88
2021/04/09 05:43:37;;;;;;;7.72;3.85;;;2.80;99.90;;;;;;4856845;29;92413;-89
2021/04/09 05:46:04;;;;;;;7.85;4.18;;;2.90;99.90;;;;;;4847703;29;92316;-90
2021/04/09 05:48:30;;;;;;;6.72;3.95;;;3.00;99.90;;;;;;4888682;28;92176;-87
2021/04/09 05:50:56;;;;;;;8.07;4.40;;;3.20;99.90;;;;;;4881599;28;91497;-87
2021/04/09 05:53:21;;;;;;;14.57;6.10;;;3.50;99.90;;;;;;4850426;29;92817;-87
2021/04/09 05:55:47;;;;;;;10.57;5.88;;;3.70;99.90;;;;;;4853640;29;92352;-86
2021/04/09 05:58:13;;;;;;;9.88;4.85;;;3.90;99.90;;;;;;4870441;29;92387;-87
2021/04/09 06:00:39;;;;;;;7.45;4.22;;;4.10;99.90;;;;;;4871304;28;93119;-87
2021/04/09 06:03:05;;;;;;;6.43;4.22;;;4.20;99.90;;;;;;4870676;28;93817;-87
2021/04/09 06:05:31;;;;;;;6.75;4.30;;;4.40;99.90;;;;;;4870331;29;92132;-87
2021/04/09 06:07:57;;;;;;;6.15;3.70;;;4.40;99.90;;;;;;4869890;29;91937;-86
2021/04/09 06:10:23;;;;;;;5.75;3.90;;;4.60;99.70;;;;;;4870864;28;91955;-86
2021/04/09 06:12:49;;;;;;;7.35;4.00;;;4.70;99.50;;;;;;4869367;29;92853;-87
2021/04/09 06:15:15;;;;;;;9.60;4.72;;;4.90;99.30;;;;;;4837401;29;92399;-87
2021/04/09 06:17:42;;;;;;;5.13;4.00;;;5.00;98.90;;;;;;4871317;29;91327;-87
2021/04/09 06:20:09;;;;;;;6.70;4.70;;;5.10;98.50;;;;;;4870083;29;92032;-86
2021/04/09 06:22:36;;;;;;;6.25;4.32;;;5.20;98.70;;;;;;4857916;29;92324;-86
2021/04/09 06:25:06;;;;;;;6.47;4.30;;;5.40;98.00;;;;;;4869165;29;92926;-86
2021/04/09 06:27:32;;;;;;;6.28;4.40;;;5.60;97.50;;;;;;4849757;29;92119;-86
2021/04/09 06:29:59;;;;;;;9.18;4.88;;;5.80;97.20;;;;;;4860524;29;92002;-86
2021/04/09 06:32:24;;;;;;;6.55;4.50;;;6.00;96.80;;;;;;4852041;29;92704;-86
2021/04/09 06:34:50;;;;;;;8.27;4.70;;;6.10;95.90;;;;;;4870411;29;91876;-86
2021/04/09 06:37:16;;;;;;;6.70;5.10;;;6.40;95.70;;;;;;4856937;29;91970;-86
2021/04/09 06:39:41;;;;;;;10.20;4.63;;;6.60;95.00;;;;;;4860871;29;91962;-86
2021/04/09 06:42:08;;;;;;;9.48;4.70;;;6.80;94.80;;;;;;4869535;28;92194;-86
2021/04/09 06:44:34;;;;;;;8.27;4.50;;;6.90;94.40;;;;;;4868538;29;92533;-86
2021/04/09 06:47:00;;;;;;;7.05;4.38;;;7.20;94.10;;;;;;4868869;29;92220;-86
2021/04/09 06:49:26;;;;;;;5.30;4.55;;;7.40;93.80;;;;;;4859462;29;93004;-85
2021/04/09 06:51:52;;;;;;;6.55;4.32;;;7.60;92.80;;;;;;4869399;28;92848;-86
2021/04/09 06:54:18;;;;;;;4.65;3.95;;;7.80;93.00;;;;;;4868785;29;92062;-86
2021/04/09 06:56:46;;;;;;;6.82;4.18;;;8.00;92.20;;;;;;4864274;29;92030;-86
2021/04/09 06:59:17;;;;;;;6.35;4.57;;;8.40;91.20;;;;;;4857152;29;91861;-86
2021/04/09 07:01:45;;;;;;;5.20;4.57;;;9.00;90.10;;;;;;4852492;29;92569;-86
2021/04/09 07:04:12;;;;;;;5.72;4.30;;;9.70;87.10;;;;;;4867929;29;92069;-86
2021/04/09 07:06:38;;;;;;;6.38;5.15;;;10.40;84.30;;;;;;4868226;29;91506;-86
2021/04/09 07:09:05;;;;;;;8.85;5.28;;;10.90;76.70;;;;;;4868541;29;92001;-86
2021/04/09 07:11:31;;;;;;;6.13;4.63;;;11.20;75.80;;;;;;4843658;28;92862;-86
2021/04/09 07:13:57;;;;;;;5.82;4.30;;;11.80;73.10;;;;;;4887089;28;93036;-86
2021/04/09 07:16:22;;;;;;;5.78;4.50;;;12.60;71.30;;;;;;4867670;29;92253;-86
2021/04/09 07:18:52;;;;;;;7.57;4.85;;;13.10;66.30;;;;;;4869623;29;92030;-86
2021/04/09 07:21:30;;;;;;;6.10;4.70;;;13.40;63.50;;;;;;4867839;29;93782;-86
2021/04/09 07:24:13;;;;;;;5.97;4.40;;;13.70;62.00;;;;;;4869631;28;92112;-86
2021/04/09 07:26:51;;;;;;;4.88;4.10;;;14.30;60.80;;;;;;4885585;28;91964;-86
2021/04/09 07:29:34;;;;;;;4.80;4.25;;;15.00;59.00;;;;;;4854432;29;92017;-86
2021/04/09 07:32:15;;;;;;;7.40;5.03;;;15.70;56.80;;;;;;4862845;29;91384;-86
2021/04/09 07:34:54;;;;;;;5.97;4.43;;;16.60;54.40;;;;;;4862029;29;92000;-86
2021/04/09 07:37:23;;;;;;;6.05;4.65;;;17.70;51.90;;;;;;4867400;29;92044;-86
2021/04/09 07:39:55;;;;;;;6.78;4.85;;;18.90;48.50;;;;;;4859848;29;92914;-87
2021/04/09 07:42:30;;;;;;;4.80;4.18;;;20.10;47.10;;;;;;4831957;29;95354;-86
2021/04/09 07:45:01;;;;;;;4.82;4.32;;;21.40;43.00;;;;;;4857475;29;92248;-86
2021/04/09 07:47:27;;;;;;;5.28;4.10;;;22.20;39.80;;;;;;4864261;29;92548;-87
2021/04/09 07:50:12;;;;;;;6.88;4.45;;;22.80;40.00;;;;;;4863343;29;91980;-87
2021/04/09 07:52:40;;;;;;;5.53;4.80;;;23.40;37.10;;;;;;4863634;29;92104;-87
2021/04/09 07:55:23;;;;;;;6.05;4.38;;;24.20;37.40;;;;;;4854838;29;92356;-87
2021/04/09 07:57:50;;;;;;;5.78;4.53;;;24.90;35.60;;;;;;4856979;28;91423;-87
2021/04/09 08:00:17;;;;;;;5.45;4.75;;;25.30;35.60;;;;;;4858284;29;92179;-87
2021/04/09 08:02:43;;;;;;;5.32;4.30;;;25.70;34.10;;;;;;4865067;28;91943;-86
2021/04/09 08:05:09;;;;;;;7.47;5.18;;;25.80;33.40;;;;;;4862761;29;92986;-86
2021/04/09 08:07:36;;;;;;;5.93;4.80;;;25.40;34.30;;;;;;4849294;28;92380;-87
2021/04/09 08:10:02;;;;;;;5.15;4.57;;;26.60;33.50;;;;;;4862353;29;92134;-86
2021/04/09 08:12:33;;;;;;;6.55;4.90;;;27.40;32.80;;;;;;4855864;28;92320;-87
2021/04/09 08:15:20;;;;;;;6.00;4.82;;;28.10;31.60;;;;;;4835032;29;92075;-87
2021/04/09 08:18:06;;;;;;;5.38;4.88;;;28.90;29.40;;;;;;4861403;29;91997;-87
2021/04/09 08:20:40;;;;;;;6.75;4.93;;;28.90;29.10;;;;;;4858988;29;92404;-87
2021/04/09 08:23:15;;;;;;;8.25;4.85;;;28.50;30.00;;;;;;4862271;29;91620;-87
2021/04/09 08:25:43;;;;;;;6.57;5.13;;;28.10;29.30;;;;;;4854785;29;92080;-88
2021/04/09 08:28:11;;;;;;;6.50;5.43;;;28.30;29.50;;;;;;4863294;28;92026;-88
2021/04/09 08:30:38;;;;;;;5.07;4.55;;;29.00;29.30;;;;;;4860547;29;93287;-87
2021/04/09 08:33:06;;;;;;;6.60;6.00;;;30.00;28.90;;;;;;4837233;29;96641;-87
2021/04/09 08:35:32;;;;;;;5.82;4.78;;;30.20;28.10;;;;;;4856602;29;92507;-88
2021/04/09 08:37:59;;;;;;;6.90;6.30;;;;;;;;;;4858943;29;92326;-88
2021/04/09 08:40:25;;;;;;;5.32;4.60;;;31.40;27.20;;;;;;4862278;29;92131;-87
2021/04/09 08:42:51;;;;;;;5.05;4.60;;;31.10;27.80;;;;;;4862666;29;92423;-88
2021/04/09 08:45:18;;;;;;;7.53;4.88;;;30.40;27.50;;;;;;4859614;29;92057;-88
2021/04/09 08:47:46;;;;;;;5.15;4.53;;;29.50;27.60;;;;;;4853876;29;91305;-88
2021/04/09 08:50:15;;;;;;;6.47;5.97;;;30.20;27.10;;;;;;4868898;29;92124;-88
2021/04/09 08:52:45;;;;;;;5.68;4.28;;;30.20;27.30;;;;;;4872522;29;92498;-87
2021/04/09 08:55:13;;;;;;;4.90;4.47;;;31.10;27.70;;;;;;4857605;29;92876;-88
2021/04/09 08:57:50;;;;;;;4.63;4.28;;;31.70;27.20;;;;;;4861665;29;92309;-88
2021/04/09 09:00:22;;;;;;;4.45;4.05;;;32.10;27.10;;;;;;4871732;29;91839;-87
2021/04/09 09:02:54;;;;;;;5.20;4.30;;;32.40;26.60;;;;;;4869326;29;91985;-87
2021/04/09 09:05:26;;;;;;;4.82;3.53;;;32.60;26.50;;;;;;4863356;29;92039;-88
2021/04/09 09:08:00;;;;;;;5.53;4.10;;;33.30;26.10;;;;;;4860811;29;91786;-87
2021/04/09 09:10:28;;;;;;;4.20;3.85;;;33.90;25.50;;;;;;4868226;29;92231;-84
2021/04/09 09:13:03;;;;;;;5.22;4.40;;;34.10;25.90;;;;;;4867390;29;91288;-87
2021/04/09 09:15:46;;;;;;;4.45;3.90;;;34.70;24.90;;;;;;4861201;29;92087;-85
2021/04/09 09:21:20;;;;;;;4.53;4.13;;;36.00;24.10;;;;;;4860876;29;93001;-86
2021/04/09 09:24:19;;;;;;;5.95;5.45;;;36.60;24.00;;;;;;4865145;29;91946;-86
2021/04/09 09:26:47;;;;;;;5.65;5.20;;;36.70;23.30;;;;;;4845808;29;92365;-86
2021/04/09 09:29:28;;;;;;;6.28;5.68;;;36.70;24.10;;;;;;4853510;29;91987;-86
2021/04/09 09:31:55;;;;;;;4.20;3.90;;;36.60;23.70;;;;;;4864309;29;91910;-86
2021/04/09 09:34:22;;;;;;;4.70;4.30;;;36.30;24.30;;;;;;4864555;28;93719;-86
2021/04/09 09:36:58;;;;;;;5.90;5.50;;;35.60;24.00;;;;;;4849050;29;93647;-86
2021/04/09 09:39:34;;;;;;;6.07;5.68;;;34.70;23.70;;;;;;4866262;29;91266;-86
2021/04/09 09:42:00;;;;;;;5.93;5.22;;;34.70;24.10;;;;;;4864050;29;92200;-85
2021/04/09 09:44:27;;;;;;;6.07;5.63;;;34.30;24.70;;;;;;4848360;29;92498;-86
2021/04/09 09:46:56;;;;;;;3.90;3.60;;;33.90;24.70;;;;;;4844102;29;94161;-86
2021/04/09 09:49:23;;;;;;;4.47;3.80;;;34.10;25.00;;;;;;4856386;29;92008;-86
2021/04/09 09:51:49;;;;;;;5.75;5.30;;;33.90;24.40;;;;;;4861302;29;92138;-86
2021/04/09 09:54:26;;;;;;;4.20;3.80;;;34.30;24.50;;;;;;4863001;29;92565;-86
2021/04/09 09:56:52;;;;;;;4.18;3.83;;;34.70;24.50;;;;;;4864179;29;91963;-86
2021/04/09 09:59:20;;;;;;;3.83;3.53;;;35.10;24.30;;;;;;4846771;29;91905;-86
2021/04/09 10:01:56;;;;;;;4.20;3.90;;;35.50;24.10;;;;;;4854116;29;91991;-86
2021/04/09 10:04:22;;;;;;;6.50;4.72;;;35.80;23.80;;;;;;4866131;29;91957;-86
2021/04/09 10:06:54;;;;;;;5.85;4.07;;;35.90;24.00;;;;;;4864525;29;92033;-86
2021/04/09 10:09:30;;;;;;;6.78;6.22;;;35.40;23.70;;;;;;4866212;29;92333;-86
2021/04/09 10:12:00;;;;;;;5.97;5.57;;;34.60;23.50;;;;;;4861530;29;93038;-86
2021/04/09 10:14:28;;;;;;;6.38;5.38;;;33.60;23.80;;;;;;4862285;29;93432;-86
2021/04/09 10:17:00;;;;;;;6.10;5.60;;;32.60;24.50;;;;;;4864899;29;93253;-86
2021/04/09 10:19:26;;;;;;;4.60;4.20;;;31.50;24.70;;;;;;4863684;29;92259;-86
2021/04/09 10:21:53;;;;;;;6.30;5.80;;;30.50;25.10;;;;;;4852721;29;92102;-85
2021/04/09 10:24:21;;;;;;;5.95;5.55;;;28.90;26.40;;;;;;4863703;29;92254;-85
2021/04/09 10:26:54;;;;;;;6.35;5.82;;;28.80;26.70;;;;;;4856688;29;92065;-85
2021/04/09 10:29:22;;;;;;;4.68;4.28;;;28.50;27.20;;;;;;4854243;29;91219;-86
2021/04/09 10:31:48;;;;;;;6.68;4.50;;;27.90;27.50;;;;;;4863536;28;92150;-86
2021/04/09 10:34:19;;;;;;;6.40;5.80;;;27.40;27.80;;;;;;4846778;29;93586;-88
2021/04/09 10:36:46;;;;;;;4.95;4.47;;;27.10;28.10;;;;;;4849022;29;92897;-88
2021/04/09 10:39:15;;;;;;;6.70;6.00;;;27.20;28.10;;;;;;4858108;29;91971;-88
2021/04/09 10:41:55;;;;;;;8.00;6.10;;;27.30;27.90;;;;;;4841304;29;91892;-86
2021/04/09 10:44:22;;;;;;;;;;;27.50;27.90;;;;;;4867589;28;93176;-86
2021/04/09 10:46:55;;;;;;;6.55;5.95;;;27.80;28.30;;;;;;4867709;29;92457;-89
2021/04/09 10:49:26;;;;;;;7.20;5.85;;;28.10;28.90;;;;;;4868188;29;92197;-90
2021/04/09 10:51:56;;;;;;;5.35;4.53;;;28.60;28.20;;;;;;4867402;29;91919;-89
2021/04/09 10:54:30;;;;;;;6.65;6.15;;;28.60;28.40;;;;;;4865640;28;92084;-87
2021/04/09 10:57:04;;;;;;;5.85;5.43;;;28.10;27.90;;;;;;4870060;28;93457;-89
2021/04/09 10:59:44;;;;;;;5.43;4.32;;;28.10;28.30;;;;;;4875608;28;92175;-86
2021/04/09 11:02:25;;;;;;;5.97;4.50;;;27.90;28.10;;;;;;4868891;29;93146;-87
2021/04/09 11:04:52;;;;;;;6.43;5.05;;;27.10;27.10;;;;;;4851912;29;94419;-87
2021/04/09 11:07:18;;;;;;;7.07;6.47;;;26.20;28.30;;;;;;4864064;29;93249;-86
2021/04/09 11:09:49;;;;;;;7.47;5.40;;;25.40;28.60;;;;;;4863468;28;91559;-86
2021/04/09 11:12:25;;;;;;;6.97;6.25;;;24.50;30.00;;;;;;4865308;29;92605;-87
2021/04/09 11:15:06;;;;;;;8.88;4.78;;;23.70;29.90;;;;;;4867284;29;92867;-88
2021/04/09 11:17:31;;;;;;;;;;;23.60;30.10;;;;;;4854216;29;92448;-87
2021/04/09 11:19:59;;;;;;;6.13;5.13;;;23.40;29.90;;;;;;4860042;29;91177;-88
2021/04/09 11:22:30;;;;;;;6.90;4.88;;;22.80;30.00;;;;;;4848104;29;91994;-87
2021/04/09 11:25:05;;;;;;;7.45;4.75;;;22.70;30.50;;;;;;4857458;29;92204;-89
2021/04/09 11:27:41;;;;;;;6.70;6.05;;;23.10;29.00;;;;;;4859297;29;94718;-89
2021/04/09 11:30:16;;;;;;;7.50;6.60;;;23.70;28.40;;;;;;4844462;28;91843;-90
2021/04/09 11:32:53;;;;;;;6.57;5.97;;;23.90;28.80;;;;;;4850208;29;92120;-89
2021/04/09 11:35:20;;;;;;;12.32;5.50;;;24.40;26.90;;;;;;4854757;29;94917;-87
2021/04/09 11:37:48;;;;;;;4.72;4.10;;;24.30;27.00;;;;;;4859402;29;92377;-87
2021/04/09 11:40:20;;;;;;;5.38;4.60;;;24.00;26.80;;;;;;4862911;29;92225;-86
2021/04/09 11:42:53;;;;;;;6.10;5.50;;;23.80;27.10;;;;;;4866039;29;91924;-86
2021/04/09 11:45:19;;;;;;;5.55;4.25;;;23.80;27.60;;;;;;4858273;28;91407;-86
2021/04/09 11:47:45;;;;;;;6.43;4.60;;;23.10;27.10;;;;;;4857583;29;91904;-86
2021/04/09 11:50:17;;;;;;;5.95;5.38;;;22.60;27.40;;;;;;4854554;29;92725;-86
2021/04/09 11:52:59;;;;;;;9.05;8.15;;;22.60;27.70;;;;;;4858614;28;93609;-91
2021/04/09 11:55:35;;;;;;;8.43;6.97;;;22.70;28.10;;;;;;4863604;28;92263;-86
2021/04/09 11:58:02;;;;;;;9.63;7.57;;;23.10;28.30;;;;;;4842652;28;95235;-85
2021/04/09 12:00:33;;;;;;;6.05;5.50;;;24.40;27.40;;;;;;4855692;28;92046;-85
2021/04/09 12:03:02;;;;;;;6.95;5.03;;;25.30;25.30;;;;;;4851660;28;92006;-86
2021/04/09 12:05:30;;;;;;;7.53;5.30;;;25.60;25.50;;;;;;4858321;28;92761;-85
2021/04/09 12:07:57;;;;;;;6.72;5.45;;;25.30;25.60;;;;;;4861115;29;92631;-85
2021/04/09 12:10:25;;;;;;;6.82;5.40;;;25.10;26.00;;;;;;4865649;28;91530;-88
2021/04/09 12:12:51;;;;;;;9.18;6.07;;;24.30;25.80;;;;;;4869681;28;92458;-86
2021/04/09 12:15:19;;;;;;;5.03;4.20;;;24.70;26.30;;;;;;4859800;29;92506;-87
2021/04/09 12:17:45;;;;;;;5.75;3.88;;;24.00;26.30;;;;;;4860613;29;92876;-86
2021/04/09 12:20:21;;;;;;;5.45;4.95;;;23.30;26.80;;;;;;4865495;29;91987;-87
2021/04/09 12:22:47;;;;;;;11.00;4.60;;;21.80;27.80;;;;;;4830980;29;92069;-86
2021/04/09 12:25:14;;;;;;;6.30;4.72;;;20.90;28.00;;;;;;4856145;29;93678;-86
2021/04/09 12:27:40;;;;;;;5.47;4.97;;;20.20;28.50;;;;;;4854398;29;92028;-86
2021/04/09 12:30:08;;;;;;;5.10;4.60;;;20.00;28.60;;;;;;4861200;29;91918;-87
2021/04/09 12:32:35;;;;;;;5.47;4.85;;;20.20;28.90;;;;;;4846738;29;92040;-87
2021/04/09 12:35:01;;;;;;;3.67;3.33;;;20.20;29.30;;;;;;4860508;29;92085;-87
2021/04/09 12:37:27;;;;;;;5.70;5.03;;;19.70;29.10;;;;;;4857290;29;91976;-87
2021/04/09 12:39:53;;;;;;;5.78;5.28;;;20.90;29.40;;;;;;4867075;29;91956;-86
2021/04/09 12:42:19;;;;;;;4.00;3.50;;;20.90;29.70;;;;;;4862808;29;93022;-87
2021/04/09 12:44:45;;;;;;;6.18;5.10;;;;;;;;;;4862666;29;92695;-86
2021/04/09 12:47:11;;;;;;;5.47;3.17;;;21.80;27.70;;;;;;4855321;29;92384;-86
2021/04/09 12:49:37;;;;;;;4.45;4.15;;;22.00;27.30;;;;;;4858271;29;92104;-86
2021/04/09 12:52:04;;;;;;;5.18;4.78;;;22.10;26.90;;;;;;4858253;29;92134;-86
2021/04/09 12:54:31;;;;;;;5.28;4.80;;;;;;;;;;4860575;29;92012;-87
2021/04/09 12:56:57;;;;;;;5.15;4.72;;;22.20;26.00;;;;;;4866469;29;91982;-86
2021/04/09 12:59:24;;;;;;;5.30;4.70;;;22.40;26.70;;;;;;4858248;29;91354;-86
2021/04/09 13:01:50;;;;;;;5.00;4.60;;;23.20;27.00;;;;;;4859019;29;92145;-86
2021/04/09 13:04:16;;;;;;;5.05;3.60;;;22.80;26.80;;;;;;4855929;28;92118;-86
2021/04/09 13:06:41;;;;;;;4.78;4.40;;;23.30;25.80;;;;;;4861004;28;92992;-86
2021/04/09 13:09:08;;;;;;;3.67;3.33;;;23.40;26.00;;;;;;4867035;29;91988;-86
2021/04/09 13:11:35;;;;;;;3.83;3.35;;;24.10;25.40;;;;;;4864856;28;91657;-86
2021/04/09 13:14:01;;;;;;;7.30;4.10;;;24.70;25.30;;;;;;4854017;28;92066;-86
2021/04/09 13:16:27;;;;;;;6.00;4.63;;;24.80;25.10;;;;;;4861693;29;92110;-87
2021/04/09 13:18:52;;;;;;;5.38;3.25;;;25.00;25.20;;;;;;4857292;29;91960;-88
2021/04/09 13:21:19;;;;;;;7.68;5.55;;;24.90;25.10;;;;;;4858064;29;92185;-89
2021/04/09 13:23:45;;;;;;;4.93;3.95;;;24.80;25.50;;;;;;4832957;29;94479;-88
2021/04/09 13:26:11;;;;;;;6.07;5.50;;;24.40;26.20;;;;;;4861999;28;92061;-86
2021/04/09 13:28:37;;;;;;;5.95;5.35;;;;;;;;;;4859445;28;91881;-88
2021/04/09 13:31:03;;;;;;;5.60;5.10;;;24.70;26.10;;;;;;4852683;29;92934;-88
2021/04/09 13:33:31;;;;;;;5.75;5.35;;;24.70;26.60;;;;;;4845366;29;92679;-87
2021/04/09 13:35:58;;;;;;;7.90;5.93;;;25.90;25.60;;;;;;4863089;28;93168;-90
2021/04/09 13:38:28;;;;;;;7.75;6.40;;;26.60;25.70;;;;;;4859846;29;91961;-88
2021/04/09 13:40:54;;;;;;;11.52;8.20;;;26.60;26.10;;;;;;4867232;29;91895;-88
2021/04/09 13:43:21;;;;;;;9.57;6.35;;;27.50;25.60;;;;;;4866032;29;92033;-88
2021/04/09 13:45:47;;;;;;;8.35;5.93;;;28.30;25.60;;;;;;4862702;29;92239;-88
2021/04/09 13:48:14;;;;;;;6.30;4.20;;;28.90;24.90;;;;;;4863342;29;91328;-87
2021/04/09 13:50:40;;;;;;;7.68;4.35;;;29.40;24.40;;;;;;4862598;29;92116;-89
2021/04/09 13:53:06;;;;;;;8.02;6.35;;;29.60;24.30;;;;;;4860617;29;92501;-88
2021/04/09 13:55:31;;;;;;;6.40;5.85;;;29.70;24.50;;;;;;4857915;29;94968;-87
2021/04/09 13:57:57;;;;;;;6.45;6.03;;;29.20;24.30;;;;;;4861421;29;92090;-88
2021/04/09 14:00:24;;;;;;;7.15;6.50;;;28.20;24.60;;;;;;4860010;29;92741;-87
2021/04/09 14:02:50;;;;;;;7.30;6.60;;;27.60;25.00;;;;;;4850726;29;92101;-88
2021/04/09 14:05:16;;;;;;;5.43;4.38;;;27.30;25.50;;;;;;4858753;28;92664;-87
2021/04/09 14:07:42;;;;;;;7.43;6.72;;;27.40;25.50;;;;;;4857064;28;92122;-86
2021/04/09 14:10:09;;;;;;;7.75;6.97;;;27.60;26.10;;;;;;4861803;28;92565;-87
2021/04/09 14:12:36;;;;;;;7.18;6.47;;;28.00;25.90;;;;;;4860111;28;91528;-87
2021/04/09 14:15:06;;;;;;;6.57;4.50;;;28.30;25.50;;;;;;4862460;28;92022;-87
2021/04/09 14:17:32;;;;;;;;;;;28.80;25.60;;;;;;4854354;28;92856;-87
2021/04/09 14:19:58;;;;;;;5.28;4.45;;;29.20;25.10;;;;;;4867079;29;93135;-87
2021/04/09 14:22:24;;;;;;;6.10;5.57;;;29.50;25.30;;;;;;4851739;28;93340;-87
2021/04/09 14:24:50;;;;;;;4.60;4.20;;;29.60;24.90;;;;;;4869752;29;92106;-88
2021/04/09 14:27:15;;;;;;;6.53;6.03;;;29.60;24.80;;;;;;4860963;28;92062;-89
2021/04/09 14:29:41;;;;;;;5.95;5.45;;;29.30;24.80;;;;;;4871022;28;91933;-88
2021/04/09 14:32:07;;;;;;;6.53;6.00;;;29.10;24.70;;;;;;4883092;28;94151;-87
2021/04/09 14:34:33;;;;;;;7.40;6.38;;;;;;;;;;4846161;29;92066;-89
2021/04/09 14:36:59;;;;;;;6.40;5.80;;;28.40;25.00;;;;;;4868344;29;91204;-84
2021/04/09 14:39:25;;;;;;;6.60;6.05;;;27.90;25.50;;;;;;4864598;28;92111;-86
2021/04/09 14:41:53;;;;;;;6.35;5.85;;;27.90;25.80;;;;;;4858497;28;92810;-89
2021/04/09 14:44:19;;;;;;;6.35;5.75;;;27.80;25.60;;;;;;4860540;28;93106;-85
2021/04/09 14:46:44;;;;;;;6.03;5.53;;;27.90;25.50;;;;;;4860918;29;92169;-86
2021/04/09 14:49:10;;;;;;;5.95;4.78;;;27.90;25.60;;;;;;4857220;28;92101;-85
2021/04/09 14:51:36;;;;;;;6.82;6.30;;;27.80;25.50;;;;;;4863620;29;92316;-85
2021/04/09 14:54:02;;;;;;;6.60;5.88;;;27.70;26.00;;;;;;4858967;28;92050;-86
2021/04/09 14:56:29;;;;;;;7.13;5.75;;;27.90;25.60;;;;;;4862115;28;92432;-85
2021/04/09 14:58:55;;;;;;;9.50;8.40;;;27.80;25.50;;;;;;4851134;29;91826;-85
2021/04/09 15:01:22;;;;;;;10.18;8.38;;;27.80;25.50;;;;;;4865720;29;91336;-86
2021/04/09 15:03:51;;;;;;;7.15;6.45;;;27.70;25.30;;;;;;4864098;29;92051;-85
2021/04/09 15:06:17;;;;;;;6.95;6.25;;;27.40;25.10;;;;;;4865115;29;91969;-85
2021/04/09 15:08:43;;;;;;;6.78;6.18;;;27.00;25.50;;;;;;4858263;29;92975;-85
2021/04/09 15:11:10;;;;;;;6.43;5.82;;;26.60;25.50;;;;;;4862988;29;92721;-86
2021/04/09 15:13:36;;;;;;;6.00;4.70;;;26.40;25.30;;;;;;4865203;29;94120;-85
2021/04/09 15:16:02;;;;;;;7.03;6.32;;;26.40;24.90;;;;;;4865090;29;92678;-85
2021/04/09 15:18:28;;;;;;;7.05;6.35;;;26.50;25.40;;;;;;4862220;29;92081;-85
2021/04/09 15:20:55;;;;;;;7.15;6.05;;;26.60;25.10;;;;;;4865792;29;93338;-85
2021/04/09 15:23:21;;;;;;;4.50;4.10;;;26.50;24.60;;;;;;4867611;29;91931;-85
2021/04/09 15:25:47;;;;;;;6.65;5.85;;;26.30;25.10;;;;;;4864976;29;91365;-86
2021/04/09 15:28:13;;;;;;;6.22;5.70;;;26.30;25.60;;;;;;4864675;29;91954;-86
2021/04/09 15:30:39;;;;;;;5.93;5.43;;;26.30;25.80;;;;;;4862747;29;93933;-85
2021/04/09 15:33:05;;;;;;;8.35;5.90;;;26.10;25.50;;;;;;4848176;29;95627;-85
2021/04/09 15:35:31;;;;;;;5.28;4.78;;;25.80;25.70;;;;;;4853926;29;92182;-85
2021/04/09 15:37:57;;;;;;;6.70;6.00;;;25.60;25.20;;;;;;4861190;29;93149;-85
2021/04/09 15:40:23;;;;;;;6.10;5.60;;;25.40;25.80;;;;;;4849000;29;93547;-85
2021/04/09 15:42:48;;;;;;;6.93;6.35;;;25.20;26.20;;;;;;4863868;28;92421;-86
2021/04/09 15:45:14;;;;;;;6.30;5.82;;;24.50;26.30;;;;;;4859009;29;91629;-85
2021/04/09 15:47:42;;;;;;;7.28;5.95;;;24.50;26.70;;;;;;4865024;29;92071;-86
2021/04/09 15:50:09;;;;;;;9.05;5.80;;;24.30;26.80;;;;;;4864638;29;90870;-86
2021/04/09 15:52:35;;;;;;;6.15;5.65;;;24.10;26.80;;;;;;4864952;29;91774;-86
2021/04/09 15:55:01;;;;;;;6.75;6.05;;;23.80;26.90;;;;;;4863161;29;91962;-86